createdAt,value
2018-08-22T00:01:26.919Z,101076.19
2018-08-22T00:04:02.200Z,101078.23
2018-08-22T00:06:31.905Z,101078.06
2018-08-22T00:09:03.429Z,101074.57
2018-08-22T00:11:36.143Z,101074.55
2018-08-22T00:14:09.454Z,101071.27
2018-08-22T00:16:42.334Z,101073.22
2018-08-22T00:19:12.351Z,101073.33
2018-08-22T00:21:45.133Z,101082.75
2018-08-22T00:24:19.327Z,101077.42
2018-08-22T00:26:50.310Z,101089.50
2018-08-22T00:29:25.818Z,101090.65
2018-08-22T00:31:59.867Z,101083.01
2018-08-22T00:37:13.797Z,101081.59
2018-08-22T00:39:44.856Z,101078.39
2018-08-22T00:42:22.407Z,101078.86
2018-08-22T00:44:54.632Z,100973.48
2018-08-22T00:47:30.858Z,101071.30
2018-08-22T00:50:07.227Z,101075.89
2018-08-22T00:52:40.091Z,101069.28
2018-08-22T00:55:16.472Z,101069.10
2018-08-22T00:57:52.572Z,101071.22
2018-08-22T01:00:26.410Z,101075.62
2018-08-22T01:02:59.382Z,101075.31
2018-08-22T01:05:37.407Z,101075.57
2018-08-22T01:08:13.827Z,101074.67
2018-08-22T01:10:51.200Z,101074.08
2018-08-22T01:13:23.726Z,101076.37
2018-08-22T01:16:01.832Z,101072.52
2018-08-22T01:18:36.679Z,101021.60
2018-08-22T01:21:13.831Z,101075.79
2018-08-22T01:23:49.346Z,101077.34
2018-08-22T01:26:27.058Z,101073.91
2018-08-22T01:29:01.041Z,101072.38
2018-08-22T01:31:34.238Z,101069.27
2018-08-22T01:34:07.537Z,101069.91
2018-08-22T01:36:42.412Z,101064.73
2018-08-22T01:39:17.933Z,101067.30
2018-08-22T01:41:51.250Z,101065.73
2018-08-22T01:44:26.928Z,101067.77
2018-08-22T01:46:57.188Z,101061.25
2018-08-22T01:49:31.589Z,101059.95
2018-08-22T01:52:02.883Z,101056.05
2018-08-22T01:54:43.271Z,101056.17
2018-08-22T01:57:17.212Z,101059.00
2018-08-22T01:59:49.803Z,101061.96
2018-08-22T02:02:24.423Z,101062.05
2018-08-22T02:05:02.199Z,101055.36
2018-08-22T02:07:33.062Z,101055.03
2018-08-22T02:10:07.695Z,101049.50
2018-08-22T02:12:51.462Z,101054.30
2018-08-22T02:15:24.257Z,101058.41
2018-08-22T02:17:59.985Z,101055.08
2018-08-22T02:20:33.505Z,101061.72
2018-08-22T02:23:05.903Z,101061.86
2018-08-22T02:25:38.705Z,101058.66
2018-08-22T02:28:17.350Z,101059.52
2018-08-22T02:30:52.091Z,101065.20
2018-08-22T02:33:34.131Z,101075.17
2018-08-22T02:36:06.897Z,101070.57
2018-08-22T02:38:42.111Z,101068.40
2018-08-22T02:41:13.842Z,101074.22
2018-08-22T02:43:46.717Z,101077.70
2018-08-22T02:46:16.810Z,101077.61
2018-08-22T02:48:51.633Z,101071.97
2018-08-22T02:51:22.099Z,101076.86
2018-08-22T02:53:55.503Z,101074.73
2018-08-22T02:56:29.193Z,101078.48
2018-08-22T02:59:00.422Z,101086.57
2018-08-22T03:01:36.406Z,101088.20
2018-08-22T03:04:09.493Z,101089.64
2018-08-22T03:06:45.868Z,101082.22
2018-08-22T03:09:21.938Z,101086.44
2018-08-22T03:11:55.711Z,101093.52
2018-08-22T03:14:31.958Z,101090.63
2018-08-22T03:17:05.097Z,101092.05
2018-08-22T03:19:37.783Z,100985.95
2018-08-22T03:22:10.678Z,101100.12
2018-08-22T03:24:45.014Z,101095.95
2018-08-22T03:27:20.718Z,101106.84
2018-08-22T03:29:56.814Z,101105.12
2018-08-22T03:32:31.962Z,101107.70
2018-08-22T03:35:03.127Z,101112.15
2018-08-22T03:37:33.982Z,101085.06
2018-08-22T03:40:05.761Z,101107.27
2018-08-22T03:42:36.580Z,101107.63
2018-08-22T03:45:10.047Z,101112.91
2018-08-22T03:47:42.183Z,101117.36
2018-08-22T03:50:12.444Z,101122.91
2018-08-22T03:52:46.202Z,101123.24
2018-08-22T03:55:23.888Z,101122.28
2018-08-22T03:58:01.349Z,101120.42
2018-08-22T04:00:35.731Z,101127.44
2018-08-22T04:03:06.678Z,101122.70
2018-08-22T04:05:44.934Z,101128.31
2018-08-22T04:08:17.746Z,101128.08
2018-08-22T04:11:01.264Z,101124.76
2018-08-22T04:13:34.464Z,101132.16
2018-08-22T04:16:09.173Z,101135.88
2018-08-22T04:18:41.778Z,101127.34
2018-08-22T04:21:15.632Z,101129.91
2018-08-22T04:23:49.380Z,101126.80
2018-08-22T04:26:25.386Z,101136.32
2018-08-22T04:31:41.690Z,101136.21
2018-08-22T04:34:23.267Z,101145.50
2018-08-22T04:36:53.842Z,101140.11
2018-08-22T04:39:26.587Z,101147.88
2018-08-22T04:41:57.113Z,101149.14
2018-08-22T04:44:32.692Z,101151.87
2018-08-22T04:47:11.007Z,101156.11
2018-08-22T04:49:46.050Z,101155.34
2018-08-22T04:52:16.803Z,101160.74
2018-08-22T04:54:49.001Z,101155.77
2018-08-22T04:57:24.790Z,101156.34
2018-08-22T05:00:04.746Z,101158.84
2018-08-22T05:02:41.013Z,101155.14
2018-08-22T05:05:12.763Z,101155.77
2018-08-22T05:07:45.810Z,101157.61
2018-08-22T05:10:18.581Z,101168.16
2018-08-22T05:12:48.890Z,101165.89
2018-08-22T05:15:24.988Z,101166.19
2018-08-22T05:18:05.695Z,101169.54
2018-08-22T05:20:39.031Z,101166.31
2018-08-22T05:23:17.380Z,101144.36
2018-08-22T05:25:51.851Z,101166.88
2018-08-22T05:28:24.191Z,101166.84
2018-08-22T05:30:56.408Z,101170.88
2018-08-22T05:33:28.997Z,101172.88
2018-08-22T05:36:02.671Z,101175.23
2018-08-22T05:38:36.584Z,101176.57
2018-08-22T05:41:08.161Z,101177.41
2018-08-22T05:43:41.652Z,101182.21
2018-08-22T05:46:17.702Z,101179.22
2018-08-22T05:48:48.194Z,101180.88
2018-08-22T05:51:21.370Z,101188.78
2018-08-22T05:53:55.026Z,101190.65
2018-08-22T05:57:31.094Z,101183.41
2018-08-22T06:00:05.596Z,101185.83
2018-08-22T06:02:37.856Z,101199.66
2018-08-22T06:05:11.489Z,101198.13
2018-08-22T06:07:44.970Z,101193.78
2018-08-22T06:10:17.675Z,101194.07
2018-08-22T06:12:53.545Z,101194.23
2018-08-22T06:15:24.960Z,101194.08
2018-08-22T06:17:58.267Z,101198.13
2018-08-22T06:20:32.700Z,101202.96
2018-08-22T06:23:04.071Z,101198.92
2018-08-22T06:25:34.003Z,101199.15
2018-08-22T06:28:08.137Z,101193.26
2018-08-22T06:30:42.236Z,101195.20
2018-08-22T06:33:15.163Z,101199.48
2018-08-22T06:35:51.803Z,101206.63
2018-08-22T06:38:25.681Z,101205.52
2018-08-22T06:40:59.993Z,101206.72
2018-08-22T06:43:34.156Z,101199.30
2018-08-22T06:46:08.573Z,101198.76
2018-08-22T06:48:47.364Z,101202.67
2018-08-22T06:51:18.437Z,101205.34
2018-08-22T06:53:56.686Z,101207.23
2018-08-22T06:56:33.104Z,101210.83
2018-08-22T06:59:09.462Z,101214.80
2018-08-22T07:01:41.632Z,101215.48
2018-08-22T07:04:13.282Z,101216.92
2018-08-22T07:06:47.897Z,101108.10
2018-08-22T07:09:19.048Z,101220.23
2018-08-22T07:11:49.289Z,101213.42
2018-08-22T07:14:20.343Z,101216.11
2018-08-22T07:16:53.238Z,101212.64
2018-08-22T07:19:27.881Z,101211.77
2018-08-22T07:22:02.165Z,101212.09
2018-08-22T07:24:33.035Z,101216.85
2018-08-22T07:27:04.455Z,101216.81
2018-08-22T07:29:38.050Z,101212.85
2018-08-22T07:32:12.292Z,101210.16
2018-08-22T07:34:50.623Z,101210.58
2018-08-22T07:37:28.693Z,101216.89
2018-08-22T07:40:01.389Z,101216.66
2018-08-22T07:42:36.693Z,101216.39
2018-08-22T07:45:07.176Z,101211.64
2018-08-22T07:47:39.583Z,101206.47
2018-08-22T07:50:11.104Z,101212.17
2018-08-22T07:52:52.595Z,101208.16
2018-08-22T07:55:32.198Z,101206.43
2018-08-22T07:58:05.237Z,101203.84
2018-08-22T08:00:42.100Z,101207.19
2018-08-22T08:03:13.868Z,101209.10
2018-08-22T08:05:47.942Z,101209.08
2018-08-22T08:08:23.847Z,101209.12
2018-08-22T08:10:58.336Z,101204.20
2018-08-22T08:13:32.355Z,101204.14
2018-08-22T08:16:07.426Z,101205.50
2018-08-22T08:18:41.810Z,101207.28
2018-08-22T08:21:13.190Z,101208.42
2018-08-22T08:23:48.048Z,101205.98
2018-08-22T08:26:19.708Z,101200.70
2018-08-22T08:28:55.653Z,101199.87
2018-08-22T08:31:28.091Z,101191.16
2018-08-22T08:34:00.502Z,101183.14
2018-08-22T08:36:30.941Z,101185.57
2018-08-22T08:39:03.588Z,101182.58
2018-08-22T08:41:37.794Z,101178.12
2018-08-22T08:44:15.336Z,101181.78
2018-08-22T08:46:47.869Z,101178.85
2018-08-22T08:49:25.759Z,101184.62
2018-08-22T08:52:05.540Z,101175.50
2018-08-22T08:54:39.019Z,101175.09
2018-08-22T08:57:11.363Z,101164.30
2018-08-22T08:59:42.775Z,101163.41
2018-08-22T09:02:16.780Z,101169.65
2018-08-22T09:04:54.920Z,101167.02
2018-08-22T09:07:30.117Z,101164.62
2018-08-22T09:10:01.065Z,101168.67
2018-08-22T09:12:36.035Z,101169.59
2018-08-22T09:15:07.887Z,101171.52
2018-08-22T09:17:37.347Z,101172.70
2018-08-22T09:20:10.300Z,101168.84
2018-08-22T09:22:48.200Z,101169.27
2018-08-22T09:25:24.164Z,101176.27
2018-08-22T09:27:56.491Z,101168.80
2018-08-22T09:30:30.163Z,101167.92
2018-08-22T09:33:03.566Z,101163.74
2018-08-22T09:35:33.719Z,101164.67
2018-08-22T09:38:06.406Z,101161.44
2018-08-22T09:40:42.057Z,101162.35
2018-08-22T09:43:13.699Z,101168.38
2018-08-22T09:45:48.012Z,101161.63
2018-08-22T09:48:21.479Z,101163.31
2018-08-22T09:50:57.270Z,101165.98
2018-08-22T09:53:30.716Z,101162.66
2018-08-22T09:56:07.971Z,101166.73
2018-08-22T09:58:39.109Z,101164.19
2018-08-22T10:01:16.646Z,101157.60
2018-08-22T10:03:58.875Z,101154.64
2018-08-22T10:06:35.020Z,101143.61
2018-08-22T10:09:14.889Z,101154.50
2018-08-22T10:11:46.920Z,101148.66
2018-08-22T10:14:20.429Z,101145.81
2018-08-22T10:16:52.491Z,101140.14
2018-08-22T10:19:30.477Z,101139.41
2018-08-22T10:22:03.701Z,101142.07
2018-08-22T10:24:35.678Z,101136.47
2018-08-22T10:27:09.196Z,101139.91
2018-08-22T10:29:42.984Z,101144.80
2018-08-22T10:32:16.897Z,101135.95
2018-08-22T10:34:49.499Z,101135.67
2018-08-22T10:37:24.920Z,101131.58
2018-08-22T10:39:57.633Z,101143.06
2018-08-22T10:42:28.439Z,101135.41
2018-08-22T10:45:04.795Z,101135.63
2018-08-22T10:47:35.980Z,101132.32
2018-08-22T10:50:12.037Z,101135.79
2018-08-22T10:52:46.163Z,101132.86
2018-08-22T10:55:21.767Z,101023.73
2018-08-22T10:57:54.573Z,101115.27
2018-08-22T11:00:24.565Z,101135.03
2018-08-22T11:02:55.815Z,101140.11
2018-08-22T11:05:27.358Z,101137.45
2018-08-22T11:08:02.682Z,101137.03
2018-08-22T11:10:34.596Z,101137.45
2018-08-22T11:13:05.913Z,101145.37
2018-08-22T11:15:39.498Z,101132.11
2018-08-22T11:18:12.128Z,101130.23
2018-08-22T11:20:49.011Z,101134.45
2018-08-22T11:23:30.964Z,101136.52
2018-08-22T11:26:14.608Z,101127.42
2018-08-22T11:28:56.834Z,101130.09
2018-08-22T11:31:39.239Z,101133.38
2018-08-22T11:34:22.063Z,101125.55
2018-08-22T11:37:19.892Z,101133.28
2018-08-22T11:39:53.147Z,101130.28
2018-08-22T11:42:29.583Z,101130.80
2018-08-22T11:45:02.461Z,101126.09
2018-08-22T11:47:35.648Z,101124.52
2018-08-22T11:50:11.232Z,101115.30
2018-08-22T11:52:41.883Z,101117.49
2018-08-22T11:55:16.370Z,101115.39
2018-08-22T11:57:50.716Z,101118.45
2018-08-22T12:00:26.898Z,101118.64
2018-08-22T12:03:02.912Z,101111.45
2018-08-22T12:05:35.584Z,101107.72
2018-08-22T12:08:11.229Z,101117.39
2018-08-22T12:10:41.797Z,101105.82
2018-08-22T12:13:21.665Z,101115.17
2018-08-22T12:15:54.524Z,101109.63
2018-08-22T12:18:28.999Z,101118.77
2018-08-22T12:21:01.253Z,101116.36
2018-08-22T12:23:36.089Z,101113.77
2018-08-22T12:26:09.691Z,101113.80
2018-08-22T12:28:40.335Z,101116.25
2018-08-22T12:31:11.750Z,101116.28
2018-08-22T12:33:45.462Z,101003.43
2018-08-22T12:36:22.739Z,101114.85
2018-08-22T12:38:59.540Z,101122.52
2018-08-22T12:41:31.470Z,101113.56
2018-08-22T12:44:05.256Z,101111.73
2018-08-22T12:46:38.634Z,101113.12
2018-08-22T12:49:14.286Z,101119.46
2018-08-22T12:51:49.483Z,101105.81
2018-08-22T12:54:30.767Z,101108.07
2018-08-22T12:57:03.968Z,101110.45
2018-08-22T12:59:35.759Z,101103.67
2018-08-22T13:02:06.967Z,101111.75
2018-08-22T13:04:41.095Z,101115.09
2018-08-22T13:07:12.136Z,101118.35
2018-08-22T13:09:51.057Z,101114.28
2018-08-22T13:12:24.970Z,101111.73
2018-08-22T13:14:56.918Z,101097.89
2018-08-22T13:17:27.898Z,101116.62
2018-08-22T13:20:02.136Z,101121.35
2018-08-22T13:22:35.949Z,101109.47
2018-08-22T13:25:09.875Z,101120.34
2018-08-22T13:27:42.165Z,101112.10
2018-08-22T13:30:14.993Z,101113.28
2018-08-22T13:32:46.265Z,101116.53
2018-08-22T13:35:16.400Z,101007.13
2018-08-22T13:37:49.947Z,101109.19
2018-08-22T13:40:20.671Z,101113.97
2018-08-22T13:42:54.650Z,101097.99
2018-08-22T13:45:26.276Z,101099.34
2018-08-22T13:48:04.984Z,101116.86
2018-08-22T13:50:43.069Z,101109.66
2018-08-22T13:53:19.327Z,101110.05
2018-08-22T13:55:50.072Z,101108.25
2018-08-22T13:58:23.347Z,101111.11
2018-08-22T14:00:56.967Z,101116.80
2018-08-22T14:03:30.158Z,101113.17
2018-08-22T14:06:12.151Z,101064.73
2018-08-22T14:08:46.730Z,101107.02
2018-08-22T14:11:18.677Z,101109.42
2018-08-22T14:13:49.749Z,101113.80
2018-08-22T14:16:23.405Z,101110.70
2018-08-22T14:19:01.694Z,101101.20
2018-08-22T14:21:34.402Z,101102.68
2018-08-22T14:24:10.184Z,101104.69
2018-08-22T14:26:42.591Z,101101.11
2018-08-22T14:29:17.585Z,101097.30
2018-08-22T14:31:48.761Z,101100.06
2018-08-22T14:34:25.032Z,101087.73
2018-08-22T14:36:57.865Z,101099.84
2018-08-22T14:39:32.634Z,101097.28
2018-08-22T14:42:04.080Z,101097.53
2018-08-22T14:44:42.230Z,101098.23
2018-08-22T14:47:12.914Z,101094.23
2018-08-22T14:49:46.483Z,101094.31
2018-08-22T14:52:21.100Z,101091.88
2018-08-22T14:54:59.011Z,101095.67
2018-08-22T14:57:30.344Z,101096.11
2018-08-22T15:00:02.658Z,101098.94
2018-08-22T15:02:40.311Z,101088.03
2018-08-22T15:05:17.169Z,101084.16
2018-08-22T15:07:50.399Z,101083.80
2018-08-22T15:10:26.337Z,101086.03
2018-08-22T15:12:57.308Z,101088.66
2018-08-22T15:15:32.487Z,101088.25
2018-08-22T15:18:08.864Z,101093.53
2018-08-22T15:20:51.642Z,101092.00
2018-08-22T15:23:23.718Z,101094.87
2018-08-22T15:25:55.235Z,101096.30
2018-08-22T15:28:28.536Z,101094.09
2018-08-22T15:31:03.301Z,101093.58
2018-08-22T15:33:46.937Z,101094.13
2018-08-22T15:36:22.234Z,101098.84
2018-08-22T15:38:56.628Z,101097.27
2018-08-22T15:41:28.652Z,101100.85
2018-08-22T15:44:00.706Z,101099.83
2018-08-22T15:46:32.230Z,101099.80
2018-08-22T15:49:09.313Z,101104.97
2018-08-22T15:51:39.690Z,101106.70
2018-08-22T15:54:17.788Z,101095.97
2018-08-22T15:56:50.904Z,101097.34
2018-08-22T15:59:26.915Z,101098.11
2018-08-22T16:01:59.043Z,101101.06
2018-08-22T16:04:34.948Z,101103.36
2018-08-22T16:07:11.427Z,101108.14
2018-08-22T16:09:46.646Z,101104.94
2018-08-22T16:12:21.421Z,101116.25
2018-08-22T16:14:55.367Z,101115.25
2018-08-22T16:17:33.248Z,101113.50
2018-08-22T16:20:07.365Z,101102.84
2018-08-22T16:22:48.810Z,101107.52
2018-08-22T16:25:24.218Z,101117.50
2018-08-22T16:27:57.909Z,101111.62
2018-08-22T16:30:36.126Z,101113.56
2018-08-22T16:33:05.928Z,101118.44
2018-08-22T16:35:38.547Z,101122.78
2018-08-22T16:38:14.821Z,101120.22
2018-08-22T16:40:55.081Z,101118.44
2018-08-22T16:43:46.851Z,101122.75
2018-08-22T16:53:11.749Z,101122.29
2018-08-22T16:55:49.053Z,101137.75
2018-08-22T16:58:22.063Z,101141.45
2018-08-22T17:00:54.467Z,101138.63
2018-08-22T17:03:25.761Z,101141.11
2018-08-22T17:06:19.834Z,101146.50
2018-08-22T17:08:52.310Z,101149.30
2018-08-22T17:11:26.113Z,101145.42
2018-08-22T17:13:59.962Z,101156.03
2018-08-22T17:16:33.058Z,101155.55
2018-08-22T17:19:08.266Z,101157.77
2018-08-22T17:21:43.131Z,101157.11
2018-08-22T17:24:15.142Z,101164.15
2018-08-22T17:26:47.207Z,101164.22
2018-08-22T17:36:14.986Z,101163.84
2018-08-22T17:38:53.645Z,101153.66
2018-08-22T17:41:30.975Z,101163.64
2018-08-22T17:44:07.432Z,101169.50
2018-08-22T17:46:50.370Z,101176.98
2018-08-22T17:49:22.414Z,101173.50
2018-08-22T17:52:16.021Z,101180.36
2018-08-22T17:54:50.115Z,101174.91
2018-08-22T17:57:28.262Z,101174.75
2018-08-22T17:59:59.618Z,101177.42
2018-08-22T18:02:35.682Z,101175.94
2018-08-22T18:05:07.657Z,101191.62
2018-08-22T18:07:38.192Z,101190.75
2018-08-22T18:10:13.333Z,101190.80
2018-08-22T18:12:49.512Z,101187.95
2018-08-22T18:15:20.510Z,101193.55
2018-08-22T18:17:54.694Z,101197.36
2018-08-22T18:20:30.971Z,101198.74
2018-08-22T18:23:05.780Z,101194.09
2018-08-22T18:25:37.457Z,101195.80
2018-08-22T18:28:11.784Z,101192.27
2018-08-22T18:30:43.371Z,101197.10
2018-08-22T18:35:51.496Z,101195.70
2018-08-22T18:38:23.502Z,101190.39
2018-08-22T18:41:07.191Z,101199.66
2018-08-22T18:43:37.546Z,101189.42
2018-08-22T18:46:08.860Z,101192.55
2018-08-22T18:48:43.073Z,101201.27
2018-08-22T18:51:12.423Z,101205.17
2018-08-22T18:53:42.874Z,101203.05
2018-08-22T18:56:16.675Z,101205.20
2018-08-22T18:58:54.720Z,101202.56
2018-08-22T19:01:26.813Z,101205.42
2018-08-22T19:03:59.582Z,101209.55
2018-08-22T19:06:31.430Z,101212.69
2018-08-22T19:09:02.135Z,101207.55
2018-08-22T19:11:35.437Z,101210.73
2018-08-22T19:14:08.443Z,101207.73
2018-08-22T19:16:40.927Z,101207.04
2018-08-22T19:19:14.378Z,101211.03
2018-08-22T19:21:49.987Z,101209.56
2018-08-22T19:24:26.619Z,101204.03
2018-08-22T19:27:01.306Z,101203.86
2018-08-22T19:29:37.921Z,101200.57
2018-08-22T19:32:12.990Z,101202.01
2018-08-22T19:34:46.280Z,101104.48
2018-08-22T19:37:21.016Z,101204.33
2018-08-22T19:40:04.800Z,101205.98
2018-08-22T19:42:42.748Z,101165.09
2018-08-22T19:45:17.976Z,101206.33
2018-08-22T19:47:49.093Z,101204.47
2018-08-22T19:50:20.410Z,101204.49
2018-08-22T19:52:59.250Z,101198.37
2018-08-22T19:55:34.922Z,101195.97
2018-08-22T19:58:08.650Z,101202.94
2018-08-22T20:00:43.065Z,101197.86
2018-08-22T20:03:24.941Z,101199.97
2018-08-22T20:05:56.348Z,101208.16
2018-08-22T20:08:34.939Z,101199.28
2018-08-22T20:11:07.816Z,101203.06
2018-08-22T20:13:51.659Z,101194.63
2018-08-22T20:16:29.864Z,101190.91
2018-08-22T20:19:04.313Z,101190.58
2018-08-22T20:21:40.856Z,101193.05
2018-08-22T20:24:17.467Z,101193.72
2018-08-22T20:26:54.617Z,101191.14
2018-08-22T20:29:24.788Z,101194.95
2018-08-22T20:32:02.829Z,101193.00
2018-08-22T20:34:36.168Z,101194.14
2018-08-22T20:37:08.732Z,101190.82
2018-08-22T20:39:42.160Z,101192.11
2018-08-22T20:42:20.327Z,101191.80
2018-08-22T20:44:58.017Z,101190.09
2018-08-22T20:47:32.888Z,101193.71
2018-08-22T20:50:06.385Z,101200.11
2018-08-22T20:55:14.867Z,101201.45
2018-08-22T20:57:46.145Z,101196.44
2018-08-22T21:00:27.099Z,101193.30
2018-08-22T21:03:01.338Z,101195.80
2018-08-22T21:05:31.555Z,101194.12
2018-08-22T21:08:03.747Z,101190.31
2018-08-22T21:10:36.513Z,101185.30
2018-08-22T21:13:17.592Z,101188.03
2018-08-22T21:15:52.084Z,101184.70
2018-08-22T21:18:25.785Z,101186.70
2018-08-22T21:20:57.531Z,101187.41
2018-08-22T21:23:28.272Z,101184.47
2018-08-22T21:26:00.626Z,101191.43
2018-08-22T21:28:39.377Z,101188.14
2018-08-22T21:31:09.576Z,101189.14
2018-08-22T21:33:45.632Z,101189.16
2018-08-22T21:36:18.718Z,101185.81
2018-08-22T21:38:54.614Z,101187.30
2018-08-22T21:41:27.855Z,101193.88
2018-08-22T21:44:01.216Z,101188.05
2018-08-22T21:46:32.295Z,101190.61
2018-08-22T21:49:11.108Z,101185.30
2018-08-22T21:51:44.323Z,101187.34
2018-08-22T21:54:18.690Z,101192.17
2018-08-22T21:56:52.224Z,101186.10
2018-08-22T21:59:24.356Z,101187.41
2018-08-22T22:02:04.295Z,101186.86
2018-08-22T22:04:36.686Z,101183.88
2018-08-22T22:07:12.814Z,101178.08
2018-08-22T22:09:45.058Z,101185.83
2018-08-22T22:12:21.376Z,101183.70
2018-08-22T22:14:55.111Z,101186.31
2018-08-22T22:17:34.188Z,101175.55
2018-08-22T22:20:13.577Z,101178.45
2018-08-22T22:22:45.495Z,101172.05
2018-08-22T22:25:20.555Z,101175.33
2018-08-22T22:27:53.209Z,101171.30
2018-08-22T22:30:26.893Z,101165.31
2018-08-22T22:33:04.002Z,101161.84
2018-08-22T22:35:42.343Z,101167.44
2018-08-22T22:38:13.226Z,101159.11
2018-08-22T22:40:43.974Z,101165.45
2018-08-22T22:43:17.002Z,101159.63
2018-08-22T22:45:49.463Z,101165.45
2018-08-22T22:48:32.694Z,101151.66
2018-08-22T22:51:08.200Z,101152.81
2018-08-22T22:53:39.305Z,101146.76
2018-08-22T22:56:12.425Z,101154.77
2018-08-22T22:58:48.453Z,101153.66
2018-08-22T23:01:20.060Z,101158.34
2018-08-22T23:03:54.849Z,101156.02
2018-08-22T23:06:34.578Z,101149.39
2018-08-22T23:09:10.803Z,101144.47
2018-08-22T23:11:51.502Z,101144.67
2018-08-22T23:14:26.709Z,101141.84
2018-08-22T23:17:00.960Z,101137.33
2018-08-22T23:19:34.827Z,101141.73
2018-08-22T23:22:10.356Z,101137.55
2018-08-22T23:24:43.533Z,101132.53
2018-08-22T23:27:16.118Z,101135.51
2018-08-22T23:29:46.514Z,101137.42
2018-08-22T23:32:18.655Z,101138.39
2018-08-22T23:34:53.702Z,101142.59
2018-08-22T23:37:29.553Z,101137.73
2018-08-22T23:40:05.425Z,101134.36
2018-08-22T23:42:39.276Z,101131.77
2018-08-22T23:45:11.888Z,101129.52
2018-08-22T23:54:31.475Z,101132.59
2018-08-22T23:57:09.550Z,101127.80
2018-08-22T23:59:44.128Z,101124.08
